Estación Meteorológica Peña el Pijo (Robertgarden) [ 12/17/17 01:27:52 CET ]

Fecha Hora Presion(HPa) Temp (°C) Humedad % Rocio (°C) Viento ( m/s) Direccion Lluvia 1Hora(mm) Lluvia 24H(mm) LLuvia Total(mm)
2017-Oct-28 01:01:53 1017.500 8.9 53 -0.2         1466.45
2017-Oct-28 02:01:45 1017.400 7.6 57 -0.4         1466.45
2017-Oct-28 03:01:40 1016.900 6.9 60 -0.3         1466.45
2017-Oct-28 04:01:40 1016.400 5.9 63 -0.6         1466.45
2017-Oct-28 05:01:38 1016.100 5.5 66 -0.4         1466.45
2017-Oct-28 06:03:08 1015.800 5.3 68 -0.1         1466.45
2017-Oct-28 07:01:34 1015.700 4.1 70 -0.9         1466.45
2017-Oct-28 08:01:54 1016.000 3.8 72 -0.8         1466.45
2017-Oct-28 09:01:50 1016.200 2.9 74 -1.3         1466.45
2017-Oct-28 10:01:58 1016.500 8.3 76 4.3         1466.45
2017-Oct-28 11:01:41 1016.600 16.8 48 5.7         1466.45
2017-Oct-28 12:01:53 1016.400 20.1 42 6.8         1466.45
2017-Oct-28 13:01:39 1015.800 22.2 41 8.3         1466.45
2017-Oct-28 14:01:38 1014.800 23.3 41 9.3         1466.45
2017-Oct-28 15:01:39 1013.900 25.7 35 9.0         1466.45
2017-Oct-28 16:01:43 1013.700 25.9 32 7.9         1466.45
2017-Oct-28 17:01:37 1013.400 24.1 40 9.7 0.9 SSW     1466.45
2017-Oct-28 18:01:43 1013.600 22.4 44 9.5         1466.45
2017-Oct-28 19:01:46 1013.800 18.2 57 9.5         1466.45
2017-Oct-28 20:01:41 1014.500 15.3 63 8.3         1466.45
2017-Oct-28 21:01:42 1014.800 12.1 70 6.8         1466.45
2017-Oct-28 22:01:39 1015.200 10.2 74 5.8         1466.45
2017-Oct-28 23:01:32 1015.000 8.9 78 5.2         1466.45

Temperatura Máxima:25°    Temperatura Mínima:
Presión Máxima:1017.500 Hpa    Presión Mínima:1013.400 Hpa


Volver